Time;durP1;ratioP1;P1;durP2;ratioP2;P2;SDS_P1;SDS_P2;PMS_P1;PMS_P2;Temp;Humidity;BMP_temperature;BMP_pressure;BME280_temperature;BME280_humidity;BME280_pressure;Samples;Min_cycle;Max_cycle;Signal;HPM_P1;HPM_P2
2024/02/16 00:00:28;;;;;;;51.35;34.30;;;7.80;99.90;;;;;;2059116;28;20021;-67
2024/02/16 00:01:28;;;;;;;49.17;34.38;;;7.80;99.90;;;;;;2059242;28;20037;-67
2024/02/16 00:02:29;;;;;;;45.67;32.42;;;7.70;99.90;;;;;;2058990;28;20027;-67
2024/02/16 00:03:31;;;;;;;49.83;34.42;;;7.60;99.90;;;;;;2059545;28;20392;-68
2024/02/16 00:04:31;;;;;;;51.30;34.72;;;7.60;99.90;;;;;;2059444;28;20027;-67
2024/02/16 00:05:32;;;;;;;49.08;35.00;;;7.60;99.90;;;;;;2055520;28;20044;-67
2024/02/16 00:06:33;;;;;;;53.22;34.85;;;7.60;99.90;;;;;;2059346;28;20025;-67
2024/02/16 00:07:34;;;;;;;51.65;35.60;;;7.70;99.90;;;;;;2059740;28;20514;-68
2024/02/16 00:08:38;;;;;;;52.78;35.25;;;7.70;99.90;;;;;;2059493;28;20037;-67
2024/02/16 00:09:39;;;;;;;50.22;34.65;;;7.60;99.90;;;;;;2059450;28;20117;-67
2024/02/16 00:10:39;;;;;;;51.30;34.97;;;7.60;99.90;;;;;;2059724;28;20023;-67
2024/02/16 00:11:40;;;;;;;51.28;35.58;;;7.70;99.90;;;;;;2066484;28;20049;-67
2024/02/16 00:12:41;;;;;;;50.85;34.65;;;7.60;99.90;;;;;;2063231;28;20081;-67
2024/02/16 00:13:42;;;;;;;52.10;35.25;;;7.60;99.90;;;;;;2056070;28;20074;-68
2024/02/16 00:14:43;;;;;;;50.97;34.88;;;7.60;99.90;;;;;;2059768;28;20034;-67
2024/02/16 00:15:43;;;;;;;51.05;34.42;;;7.70;99.90;;;;;;2059414;28;20022;-67
2024/02/16 00:16:44;;;;;;;49.88;34.20;;;7.70;99.90;;;;;;2058330;28;20529;-66
2024/02/16 00:17:45;;;;;;;49.58;34.10;;;7.70;99.90;;;;;;2056106;28;20555;-67
2024/02/16 00:18:45;;;;;;;52.40;34.90;;;7.70;99.90;;;;;;2058441;28;20038;-68
2024/02/16 00:19:46;;;;;;;48.42;34.08;;;7.70;99.90;;;;;;2056318;28;20045;-66
2024/02/16 00:20:46;;;;;;;49.83;33.88;;;7.70;99.90;;;;;;2059006;28;20388;-67
2024/02/16 00:21:47;;;;;;;52.25;34.78;;;7.60;99.90;;;;;;2055462;28;20046;-67
2024/02/16 00:22:47;;;;;;;48.03;33.30;;;7.60;99.90;;;;;;2059308;28;20600;-67
2024/02/16 00:23:48;;;;;;;47.78;33.95;;;7.60;99.90;;;;;;2059350;28;20436;-66
2024/02/16 00:24:49;;;;;;;49.15;33.72;;;7.60;99.90;;;;;;2059543;28;20035;-67
2024/02/16 00:25:49;;;;;;;52.17;32.97;;;7.60;99.90;;;;;;2057771;28;20026;-68
2024/02/16 00:26:50;;;;;;;47.10;32.15;;;7.60;99.90;;;;;;2057733;28;20123;-65
2024/02/16 00:27:53;;;;;;;50.13;34.85;;;7.50;99.90;;;;;;2059476;28;20015;-67
2024/02/16 00:28:54;;;;;;;51.90;35.30;;;7.50;99.90;;;;;;2055566;28;20062;-68
2024/02/16 00:29:54;;;;;;;50.58;34.72;;;7.50;99.90;;;;;;2057654;28;20010;-67
2024/02/16 00:30:55;;;;;;;52.63;35.55;;;7.50;99.90;;;;;;2056987;28;20027;-67
2024/02/16 00:31:55;;;;;;;52.05;34.50;;;7.40;99.90;;;;;;2050255;28;20062;-67
2024/02/16 00:32:56;;;;;;;53.15;34.80;;;7.40;99.90;;;;;;2058488;28;20023;-68
2024/02/16 00:33:56;;;;;;;50.03;34.17;;;7.40;99.90;;;;;;2054690;28;20037;-67
2024/02/16 00:34:58;;;;;;;50.70;33.60;;;7.40;99.90;;;;;;2054787;28;20065;-67
2024/02/16 00:35:58;;;;;;;49.63;33.30;;;7.40;99.90;;;;;;2050711;28;20033;-67
2024/02/16 00:36:59;;;;;;;48.38;32.90;;;7.40;99.90;;;;;;2058744;28;20114;-67
2024/02/16 00:38:00;;;;;;;47.33;32.90;;;7.40;99.90;;;;;;2058967;28;21587;-68
2024/02/16 00:39:00;;;;;;;47.03;32.92;;;7.40;99.90;;;;;;2058673;28;20026;-67
2024/02/16 00:40:01;;;;;;;50.42;33.35;;;7.40;99.90;;;;;;2058724;28;20513;-67
2024/02/16 00:41:02;;;;;;;49.13;33.00;;;7.40;99.90;;;;;;2055069;28;20069;-66
2024/02/16 00:42:03;;;;;;;45.53;31.67;;;7.30;99.90;;;;;;2059183;28;20046;-66
2024/02/16 00:43:03;;;;;;;47.70;33.20;;;7.30;99.90;;;;;;2059508;28;20069;-67
2024/02/16 00:44:04;;;;;;;48.80;31.90;;;7.30;99.90;;;;;;2059579;28;20030;-67
2024/02/16 00:45:05;;;;;;;48.47;33.33;;;7.30;99.90;;;;;;2059290;28;20030;-67
2024/02/16 00:46:05;;;;;;;47.70;31.77;;;7.30;99.90;;;;;;2059934;28;22213;-80
2024/02/16 00:47:06;;;;;;;46.22;32.50;;;7.20;99.90;;;;;;2061439;28;20022;-77
2024/02/16 00:48:07;;;;;;;48.00;31.98;;;7.20;99.90;;;;;;2060904;28;20682;-73
2024/02/16 00:49:10;;;;;;;51.65;32.92;;;7.20;99.90;;;;;;2060801;28;20045;-73
2024/02/16 00:50:11;;;;;;;53.13;34.28;;;7.30;99.90;;;;;;2057036;28;20042;-81
2024/02/16 00:51:11;;;;;;;51.47;33.13;;;7.40;99.90;;;;;;2061487;28;20477;-80
2024/02/16 00:52:12;;;;;;;49.45;33.53;;;7.40;99.90;;;;;;2060949;28;20035;-78
2024/02/16 00:53:13;;;;;;;50.17;32.78;;;7.50;99.90;;;;;;2061109;28;20053;-78
2024/02/16 00:54:13;;;;;;;48.85;32.22;;;7.50;99.90;;;;;;2061216;28;20124;-79
2024/02/16 00:55:14;;;;;;;48.28;33.03;;;7.50;99.90;;;;;;2057497;28;20050;-81
2024/02/16 00:56:14;;;;;;;51.65;33.70;;;7.50;99.90;;;;;;2060746;28;20590;-80
2024/02/16 00:57:16;;;;;;;50.47;33.67;;;7.50;99.90;;;;;;2061009;28;20412;-80
2024/02/16 00:58:17;;;;;;;49.65;31.85;;;7.50;99.90;;;;;;2061266;28;20436;-80
2024/02/16 00:59:17;;;;;;;48.35;31.95;;;7.50;99.90;;;;;;2056518;28;20033;-79
2024/02/16 01:00:19;;;;;;;50.78;32.80;;;7.40;99.90;;;;;;2060876;28;20058;-77
2024/02/16 01:01:22;;;;;;;46.45;32.30;;;7.40;99.90;;;;;;2060518;28;20405;-79
2024/02/16 01:02:22;;;;;;;47.33;32.40;;;7.40;99.90;;;;;;2057997;28;20046;-79
2024/02/16 01:03:23;;;;;;;47.10;31.50;;;7.40;99.90;;;;;;2061422;28;20443;-80
2024/02/16 01:04:24;;;;;;;47.00;31.33;;;7.30;99.90;;;;;;2061083;28;20038;-79
2024/02/16 01:05:24;;;;;;;49.55;32.95;;;7.30;99.90;;;;;;2057562;28;20026;-78
2024/02/16 01:06:25;;;;;;;47.58;31.67;;;7.30;99.90;;;;;;2060930;28;20031;-79
2024/02/16 01:07:25;;;;;;;47.75;31.73;;;7.30;99.90;;;;;;2060419;28;20030;-79
2024/02/16 01:08:27;;;;;;;48.13;32.22;;;7.20;99.90;;;;;;2060620;28;20029;-80
2024/02/16 01:09:27;;;;;;;49.83;33.83;;;7.20;99.90;;;;;;2060979;28;20456;-81
2024/02/16 01:10:28;;;;;;;48.75;33.92;;;7.20;99.90;;;;;;2056988;28;20059;-81
2024/02/16 01:11:28;;;;;;;51.78;34.10;;;7.20;99.90;;;;;;2060333;28;20022;-80
2024/02/16 01:12:32;;;;;;;50.67;33.25;;;7.20;99.90;;;;;;2058025;28;20018;-81
2024/02/16 01:13:32;;;;;;;49.63;33.15;;;7.20;99.90;;;;;;2061024;28;20030;-80
2024/02/16 01:14:33;;;;;;;47.80;32.75;;;7.10;99.90;;;;;;2057124;28;20038;-79
2024/02/16 01:15:34;;;;;;;50.22;33.00;;;7.10;99.90;;;;;;2060901;28;20033;-80
2024/02/16 01:16:35;;;;;;;50.60;33.47;;;7.10;99.90;;;;;;2060254;28;20034;-80
2024/02/16 01:17:36;;;;;;;51.40;33.30;;;7.10;99.90;;;;;;2060401;28;20058;-80
2024/02/16 01:18:37;;;;;;;48.97;31.33;;;7.10;99.90;;;;;;2058411;28;20023;-79
2024/02/16 01:19:37;;;;;;;50.20;32.55;;;7.10;99.90;;;;;;2058851;28;20026;-79
2024/02/16 01:20:38;;;;;;;49.33;33.08;;;7.10;99.90;;;;;;2060653;28;20022;-80
2024/02/16 01:21:39;;;;;;;49.45;32.08;;;7.10;99.90;;;;;;2060398;28;20053;-80
2024/02/16 01:22:40;;;;;;;49.88;31.90;;;7.10;99.90;;;;;;2059908;28;20116;-80
2024/02/16 01:23:40;;;;;;;48.15;31.85;;;7.10;99.90;;;;;;2061280;28;20069;-79
2024/02/16 01:24:41;;;;;;;47.13;31.45;;;7.10;99.90;;;;;;2061245;28;20033;-79
2024/02/16 01:25:42;;;;;;;52.03;33.58;;;7.10;99.90;;;;;;2060084;28;20459;-81
2024/02/16 01:26:42;;;;;;;54.92;34.00;;;7.10;99.90;;;;;;2059959;28;20776;-80
2024/02/16 01:27:43;;;;;;;49.03;32.15;;;7.10;99.90;;;;;;2060826;28;20054;-80
2024/02/16 01:28:43;;;;;;;48.63;32.67;;;7.10;99.90;;;;;;2058835;28;20033;-80
2024/02/16 01:29:44;;;;;;;50.17;32.63;;;7.10;99.90;;;;;;2059058;28;20037;-80
2024/02/16 01:30:44;;;;;;;48.60;31.85;;;7.10;99.90;;;;;;2060712;28;20050;-80
2024/02/16 01:31:45;;;;;;;46.67;31.45;;;7.00;99.90;;;;;;2056780;28;20038;-80
2024/02/16 01:32:46;;;;;;;50.03;31.60;;;7.00;99.90;;;;;;2060650;28;20042;-80
2024/02/16 01:33:46;;;;;;;43.25;29.65;;;7.00;99.90;;;;;;2058579;28;20587;-80
2024/02/16 01:34:49;;;;;;;46.67;30.67;;;7.00;99.90;;;;;;2058581;28;20527;-80
2024/02/16 01:35:50;;;;;;;46.85;30.25;;;7.00;99.90;;;;;;2060204;28;20468;-80
2024/02/16 01:36:50;;;;;;;50.38;31.80;;;7.00;99.90;;;;;;2057854;28;20030;-80
2024/02/16 01:37:51;;;;;;;49.30;31.40;;;7.00;99.90;;;;;;2059948;28;20038;-79
2024/02/16 01:38:51;;;;;;;47.22;30.63;;;7.00;99.90;;;;;;2060745;28;20100;-80
2024/02/16 01:39:52;;;;;;;46.05;30.80;;;7.00;99.90;;;;;;2060712;28;20033;-80
2024/02/16 01:40:53;;;;;;;48.80;31.45;;;7.00;99.90;;;;;;2056598;28;20041;-74
2024/02/16 01:41:53;;;;;;;45.78;29.98;;;7.00;99.90;;;;;;2060403;28;20042;-73
2024/02/16 01:42:54;;;;;;;43.83;28.88;;;7.00;99.90;;;;;;2060322;28;20116;-71
2024/02/16 01:43:55;;;;;;;43.67;28.80;;;7.00;99.90;;;;;;2060135;28;20068;-72
2024/02/16 01:44:55;;;;;;;47.72;30.35;;;7.00;99.90;;;;;;2060543;28;20081;-71
2024/02/16 01:45:58;;;;;;;44.85;29.33;;;7.10;99.90;;;;;;2060398;28;20022;-71
2024/02/16 01:46:59;;;;;;;46.47;30.35;;;7.00;99.90;;;;;;2060348;28;20519;-73
2024/02/16 01:48:00;;;;;;;49.55;31.80;;;7.10;99.90;;;;;;2060322;28;20030;-72
2024/02/16 01:49:02;;;;;;;46.95;30.83;;;7.10;99.90;;;;;;2060667;28;20049;-71
2024/02/16 01:50:03;;;;;;;48.92;32.13;;;7.10;99.90;;;;;;2056455;28;20058;-73
2024/02/16 01:51:04;;;;;;;46.95;31.08;;;7.10;99.90;;;;;;2060238;28;20448;-72
2024/02/16 01:52:05;;;;;;;46.38;30.58;;;7.10;99.90;;;;;;2059995;28;20034;-71
2024/02/16 01:53:06;;;;;;;48.05;31.58;;;7.10;99.90;;;;;;2056642;28;20058;-71
2024/02/16 01:54:07;;;;;;;51.45;32.08;;;7.10;99.90;;;;;;2055130;28;20026;-73
2024/02/16 01:55:10;;;;;;;48.00;30.80;;;7.10;99.90;;;;;;2052735;28;20035;-72
2024/02/16 01:56:11;;;;;;;47.05;30.75;;;7.10;99.90;;;;;;2059041;28;20061;-73
2024/02/16 01:57:12;;;;;;;44.55;30.30;;;7.10;99.90;;;;;;2056489;28;20034;-72
2024/02/16 01:58:13;;;;;;;46.97;30.65;;;7.10;99.90;;;;;;2054233;28;20118;-73
2024/02/16 01:59:14;;;;;;;48.65;30.92;;;7.10;99.90;;;;;;2057999;28;20110;-72
2024/02/16 02:00:17;;;;;;;47.63;30.83;;;7.10;99.90;;;;;;2060342;28;20049;-73
2024/02/16 02:01:18;;;;;;;46.95;30.73;;;7.10;99.90;;;;;;2059694;28;20022;-72
2024/02/16 02:02:18;;;;;;;44.33;29.85;;;7.10;99.90;;;;;;2059522;28;20047;-72
2024/02/16 02:03:19;;;;;;;44.70;29.70;;;7.10;99.90;;;;;;2060147;28;20038;-73
2024/02/16 02:04:20;;;;;;;46.80;30.27;;;7.20;99.90;;;;;;2060579;28;20058;-73
2024/02/16 02:05:20;;;;;;;45.63;30.67;;;7.20;99.90;;;;;;2058356;28;20038;-72
2024/02/16 02:06:21;;;;;;;46.88;29.15;;;7.20;99.90;;;;;;2054027;28;20032;-72
2024/02/16 02:07:27;;;;;;;49.38;30.80;;;7.20;99.90;;;;;;2060499;28;20488;-72
2024/02/16 02:08:27;;;;;;;45.78;30.08;;;7.20;99.90;;;;;;2059429;28;20042;-72
2024/02/16 02:09:28;;;;;;;44.92;29.60;;;7.20;99.90;;;;;;2059592;28;20070;-73
2024/02/16 02:10:28;;;;;;;47.15;30.33;;;7.20;99.90;;;;;;2060398;28;20562;-73
2024/02/16 02:11:29;;;;;;;44.35;29.63;;;7.20;99.90;;;;;;2057265;28;20050;-73
2024/02/16 02:12:29;;;;;;;45.78;29.10;;;7.20;99.90;;;;;;2055016;28;20112;-73
2024/02/16 02:13:30;;;;;;;43.25;29.02;;;7.30;99.90;;;;;;2060396;28;20088;-72
2024/02/16 02:14:30;;;;;;;44.75;29.20;;;7.30;99.90;;;;;;2060274;28;20038;-72
2024/02/16 02:15:32;;;;;;;44.00;28.95;;;7.40;99.90;;;;;;2060246;28;20049;-73
2024/02/16 02:16:32;;;;;;;47.65;29.55;;;7.50;99.90;;;;;;2059626;28;20022;-73
2024/02/16 02:17:34;;;;;;;46.95;30.50;;;7.50;99.90;;;;;;2059553;28;20073;-72
2024/02/16 02:18:34;;;;;;;45.83;29.83;;;7.60;99.90;;;;;;2058207;28;20037;-73
2024/02/16 02:19:35;;;;;;;44.63;28.92;;;7.60;99.90;;;;;;2057488;28;20038;-73
2024/02/16 02:20:36;;;;;;;45.30;29.45;;;7.60;99.90;;;;;;2057136;28;20602;-72
2024/02/16 02:21:37;;;;;;;45.15;29.00;;;7.60;99.90;;;;;;2058855;28;20019;-71
2024/02/16 02:22:38;;;;;;;45.40;29.63;;;7.60;99.90;;;;;;2059759;28;20506;-73
2024/02/16 02:23:38;;;;;;;48.80;29.83;;;7.60;99.90;;;;;;2055623;28;20085;-73
2024/02/16 02:24:39;;;;;;;45.55;29.48;;;7.60;99.90;;;;;;2059563;28;20113;-73
2024/02/16 02:25:40;;;;;;;47.03;29.55;;;7.60;99.90;;;;;;2057627;28;20073;-72
2024/02/16 02:26:41;;;;;;;43.67;29.42;;;7.60;99.90;;;;;;2060052;28;20041;-72
2024/02/16 02:27:42;;;;;;;44.42;28.13;;;7.60;99.90;;;;;;2059952;28;20018;-72
2024/02/16 02:28:43;;;;;;;46.58;29.00;;;7.70;99.90;;;;;;2059952;28;20081;-71
2024/02/16 02:29:44;;;;;;;45.50;28.42;;;7.70;99.90;;;;;;2060056;28;20124;-72
2024/02/16 02:30:45;;;;;;;44.47;28.15;;;7.70;99.90;;;;;;2059864;28;20056;-72
2024/02/16 02:31:46;;;;;;;43.53;28.05;;;7.80;99.90;;;;;;2054308;28;20037;-72
2024/02/16 02:32:47;;;;;;;43.95;27.90;;;7.80;99.90;;;;;;2060073;28;20101;-73
2024/02/16 02:33:47;;;;;;;44.75;29.30;;;7.80;99.90;;;;;;2059872;28;20441;-72
2024/02/16 02:34:48;;;;;;;45.15;28.52;;;7.80;99.90;;;;;;2055989;28;20023;-72
2024/02/16 02:35:48;;;;;;;44.03;28.45;;;7.90;99.90;;;;;;2060080;28;20522;-72
2024/02/16 02:36:49;;;;;;;42.95;28.48;;;7.80;99.90;;;;;;2058670;28;20074;-72
2024/02/16 02:37:49;;;;;;;44.90;28.40;;;7.90;99.90;;;;;;2059050;28;20053;-72
2024/02/16 02:38:50;;;;;;;42.58;27.63;;;7.80;99.90;;;;;;2059704;28;20476;-72
2024/02/16 02:39:50;;;;;;;43.88;27.95;;;7.80;99.90;;;;;;2059390;28;20487;-72
2024/02/16 02:40:51;;;;;;;43.40;28.20;;;7.70;99.90;;;;;;2059370;28;20524;-72
2024/02/16 02:41:51;;;;;;;45.35;28.45;;;7.60;99.90;;;;;;2059887;28;20041;-74
2024/02/16 02:42:53;;;;;;;44.95;28.90;;;7.70;99.90;;;;;;2059446;28;20030;-72
2024/02/16 02:43:54;;;;;;;42.75;27.15;;;7.60;99.90;;;;;;2055793;28;20022;-72
2024/02/16 02:44:54;;;;;;;43.03;28.80;;;7.60;99.90;;;;;;2056691;28;20057;-72
2024/02/16 02:45:55;;;;;;;46.58;30.00;;;7.60;99.90;;;;;;2060163;28;20113;-72
2024/02/16 02:46:56;;;;;;;46.25;29.00;;;7.70;99.90;;;;;;2058828;28;20084;-72
2024/02/16 02:47:56;;;;;;;46.95;29.20;;;7.70;99.90;;;;;;2053191;28;20019;-72
2024/02/16 02:48:57;;;;;;;46.08;29.10;;;7.80;99.90;;;;;;2058634;28;20022;-73
2024/02/16 02:49:57;;;;;;;49.13;29.17;;;7.80;99.90;;;;;;2056039;28;20101;-72
2024/02/16 02:50:59;;;;;;;43.70;28.45;;;7.80;99.90;;;;;;2057340;28;20030;-72
2024/02/16 02:52:00;;;;;;;42.42;27.95;;;7.70;99.90;;;;;;2060201;28;20018;-73
2024/02/16 02:53:00;;;;;;;43.20;28.73;;;7.60;99.90;;;;;;2060012;28;20085;-73
2024/02/16 02:54:01;;;;;;;44.03;28.55;;;7.60;99.90;;;;;;2057639;28;20072;-71
2024/02/16 02:55:02;;;;;;;44.47;28.33;;;7.70;99.90;;;;;;2058046;28;20073;-72
2024/02/16 02:56:03;;;;;;;43.70;28.38;;;7.70;99.90;;;;;;2059568;28;20022;-73
2024/02/16 02:57:04;;;;;;;43.33;27.83;;;7.70;99.90;;;;;;2056962;28;20562;-72
2024/02/16 02:58:05;;;;;;;46.33;29.08;;;7.80;99.90;;;;;;2055537;28;20026;-71
2024/02/16 02:59:05;;;;;;;43.15;28.55;;;7.80;99.90;;;;;;2058145;28;20118;-72
2024/02/16 03:00:10;;;;;;;44.92;28.40;;;7.90;99.90;;;;;;2055947;28;20030;-72
2024/02/16 03:01:11;;;;;;;45.05;28.02;;;8.00;99.90;;;;;;2052838;28;20058;-73
2024/02/16 03:02:12;;;;;;;44.90;28.02;;;8.10;99.90;;;;;;2059153;28;20132;-72
2024/02/16 03:03:13;;;;;;;46.80;28.90;;;8.10;99.90;;;;;;2059888;28;20030;-73
2024/02/16 03:04:14;;;;;;;44.67;28.38;;;8.10;99.90;;;;;;2056377;28;20033;-72
2024/02/16 03:05:14;;;;;;;40.85;27.80;;;8.20;99.90;;;;;;2055573;28;20034;-72
2024/02/16 03:06:19;;;;;;;42.85;27.10;;;8.20;99.90;;;;;;2059927;28;20031;-73
2024/02/16 03:07:19;;;;;;;42.58;27.27;;;8.20;99.90;;;;;;2056290;28;20034;-72
2024/02/16 03:08:20;;;;;;;44.80;27.58;;;8.30;99.90;;;;;;2059631;28;20073;-73
2024/02/16 03:09:20;;;;;;;41.92;27.05;;;8.30;99.90;;;;;;2058954;28;20042;-72
2024/02/16 03:10:23;;;;;;;38.35;25.67;;;8.40;99.90;;;;;;2059860;28;20106;-72
2024/02/16 03:11:24;;;;;;;41.20;26.17;;;8.40;99.90;;;;;;2059925;28;20080;-72
2024/02/16 03:12:24;;;;;;;42.25;26.95;;;8.50;99.90;;;;;;2059806;28;20497;-73
2024/02/16 03:13:25;;;;;;;41.13;26.45;;;8.50;99.90;;;;;;2059759;28;20176;-73
2024/02/16 03:14:25;;;;;;;40.90;26.27;;;8.60;99.90;;;;;;2059618;28;20026;-72
2024/02/16 03:15:26;;;;;;;38.33;25.63;;;8.60;99.90;;;;;;2057204;28;20193;-72
2024/02/16 03:16:26;;;;;;;40.20;25.73;;;8.70;99.90;;;;;;2059610;28;20751;-72
2024/02/16 03:17:27;;;;;;;40.88;26.42;;;8.80;99.90;;;;;;2059831;28;20037;-72
2024/02/16 03:18:37;;;;;;;41.17;25.88;;;8.80;99.90;;;;;;2058669;28;20023;-73
2024/02/16 03:19:37;;;;;;;39.83;26.25;;;8.80;99.90;;;;;;2057585;28;20504;-73
2024/02/16 03:20:38;;;;;;;39.75;26.20;;;8.90;99.90;;;;;;2059965;28;20033;-73
2024/02/16 03:21:38;;;;;;;39.30;25.52;;;8.90;99.90;;;;;;2059476;28;20019;-72
2024/02/16 03:22:39;;;;;;;36.95;25.17;;;9.00;99.90;;;;;;2059689;28;20023;-72
2024/02/16 03:23:40;;;;;;;39.03;25.08;;;9.10;99.90;;;;;;2055763;28;20098;-72
2024/02/16 03:24:40;;;;;;;36.53;24.67;;;9.10;99.90;;;;;;2059634;28;20028;-72
2024/02/16 03:25:41;;;;;;;38.20;25.67;;;9.10;99.90;;;;;;2055834;28;20855;-74
2024/02/16 03:26:41;;;;;;;38.13;25.50;;;9.20;99.90;;;;;;2059899;28;20728;-74
2024/02/16 03:27:43;;;;;;;34.38;23.88;;;9.20;99.90;;;;;;2059702;28;20030;-74
2024/02/16 03:28:47;;;;;;;36.95;24.20;;;9.20;99.90;;;;;;2059696;28;20038;-74
2024/02/16 03:29:47;;;;;;;35.40;23.73;;;9.20;99.90;;;;;;2059798;28;20042;-73
2024/02/16 03:30:48;;;;;;;34.85;23.90;;;9.30;99.90;;;;;;2056134;28;20026;-74
2024/02/16 03:31:51;;;;;;;35.83;24.88;;;9.40;99.90;;;;;;2054172;28;20027;-74
2024/02/16 03:32:52;;;;;;;35.85;23.60;;;9.40;99.90;;;;;;2054726;28;20125;-73
2024/02/16 03:33:52;;;;;;;35.95;24.10;;;9.40;99.90;;;;;;2059750;28;20026;-73
2024/02/16 03:34:53;;;;;;;36.90;24.85;;;9.40;99.90;;;;;;2059625;28;20113;-73
2024/02/16 03:35:53;;;;;;;34.50;24.08;;;9.30;99.90;;;;;;2058834;28;20503;-71
2024/02/16 03:36:54;;;;;;;36.08;24.98;;;9.40;99.90;;;;;;2059269;28;20452;-73
2024/02/16 03:37:55;;;;;;;37.90;24.67;;;9.40;99.90;;;;;;2059337;28;20385;-72
2024/02/16 03:38:56;;;;;;;37.70;24.15;;;9.40;99.90;;;;;;2059426;28;20042;-71
2024/02/16 03:39:57;;;;;;;36.95;24.55;;;9.50;99.90;;;;;;2055539;28;20037;-74
2024/02/16 03:40:57;;;;;;;36.72;24.92;;;9.50;99.90;;;;;;2055247;28;20374;-73
2024/02/16 03:41:58;;;;;;;34.83;24.15;;;9.50;99.90;;;;;;2054825;28;20053;-74
2024/02/16 03:42:59;;;;;;;36.38;24.58;;;9.50;99.90;;;;;;2059757;28;20472;-72
2024/02/16 03:44:00;;;;;;;35.67;24.30;;;9.50;99.90;;;;;;2056125;28;20022;-74
2024/02/16 03:45:00;;;;;;;35.05;24.40;;;9.50;99.90;;;;;;2058716;28;20081;-73
2024/02/16 03:46:01;;;;;;;35.28;23.50;;;9.50;99.90;;;;;;2052012;28;20177;-72
2024/02/16 03:47:02;;;;;;;37.17;24.92;;;9.50;99.90;;;;;;2059635;28;20416;-73
2024/02/16 03:48:03;;;;;;;35.08;24.23;;;9.40;99.90;;;;;;2058865;28;20050;-73
2024/02/16 03:49:03;;;;;;;37.05;24.83;;;9.40;99.90;;;;;;2054956;28;20529;-73
2024/02/16 03:50:04;;;;;;;36.15;24.48;;;9.40;99.90;;;;;;2055603;28;20027;-73
2024/02/16 03:51:05;;;;;;;36.40;25.05;;;9.40;99.90;;;;;;2059555;28;20038;-73
2024/02/16 03:52:05;;;;;;;38.35;24.75;;;9.40;99.90;;;;;;2058694;28;20459;-72
2024/02/16 03:53:06;;;;;;;35.60;24.48;;;9.50;99.90;;;;;;2055960;28;20026;-72
2024/02/16 03:54:06;;;;;;;35.42;24.08;;;9.50;99.90;;;;;;2059748;28;20026;-73
2024/02/16 03:55:07;;;;;;;34.78;23.88;;;9.50;99.90;;;;;;2058665;28;20093;-73
2024/02/16 03:56:08;;;;;;;35.10;23.77;;;9.40;99.90;;;;;;2055936;28;20038;-73
2024/02/16 03:57:11;;;;;;;36.13;24.42;;;9.40;99.90;;;;;;2059589;28;20026;-73
2024/02/16 03:58:12;;;;;;;35.42;25.00;;;9.40;99.90;;;;;;2059562;28;20042;-72
2024/02/16 03:59:12;;;;;;;34.25;24.10;;;9.40;99.90;;;;;;2059532;28;20566;-72
2024/02/16 04:00:14;;;;;;;34.28;24.48;;;9.30;99.90;;;;;;2059511;28;20036;-75
2024/02/16 04:01:15;;;;;;;35.13;24.40;;;9.40;99.90;;;;;;2058869;28;20101;-73
2024/02/16 04:02:16;;;;;;;37.42;24.98;;;9.40;99.90;;;;;;2052477;28;20066;-72
2024/02/16 04:03:16;;;;;;;36.72;24.65;;;9.30;99.90;;;;;;2049052;28;20041;-73
2024/02/16 04:04:18;;;;;;;37.30;25.58;;;9.30;99.90;;;;;;2059458;28;20226;-72
2024/02/16 04:05:18;;;;;;;37.40;25.50;;;9.30;99.90;;;;;;2059464;28;20038;-74
2024/02/16 04:06:19;;;;;;;37.13;25.52;;;9.30;99.90;;;;;;2059407;28;20031;-74
2024/02/16 04:07:20;;;;;;;38.53;25.60;;;9.30;99.90;;;;;;2058837;28;20161;-73
2024/02/16 04:08:21;;;;;;;37.55;25.90;;;9.20;99.90;;;;;;2056275;28;20511;-72
2024/02/16 04:09:21;;;;;;;36.55;25.48;;;9.20;99.90;;;;;;2058170;28;20030;-72
2024/02/16 04:10:22;;;;;;;37.50;26.42;;;9.20;99.90;;;;;;2059248;28;20664;-72
2024/02/16 04:11:22;;;;;;;36.92;25.13;;;9.20;99.90;;;;;;2058945;28;20030;-72
2024/02/16 04:12:23;;;;;;;39.03;26.60;;;9.20;99.90;;;;;;2057935;28;20456;-73
2024/02/16 04:13:23;;;;;;;38.70;26.75;;;9.20;99.90;;;;;;2059657;28;20069;-73
2024/02/16 04:14:24;;;;;;;38.13;25.95;;;9.30;99.90;;;;;;2059597;28;20034;-74
2024/02/16 04:15:24;;;;;;;37.55;25.27;;;9.20;99.90;;;;;;2058999;28;20037;-73
2024/02/16 04:16:25;;;;;;;38.92;26.15;;;9.20;99.90;;;;;;2044885;28;20066;-72
2024/02/16 04:17:26;;;;;;;38.05;25.98;;;9.20;99.90;;;;;;2057484;28;20042;-74
2024/02/16 04:18:26;;;;;;;38.95;26.52;;;9.20;99.90;;;;;;2059532;28;20177;-73
2024/02/16 04:19:27;;;;;;;36.58;25.42;;;9.20;99.90;;;;;;2058924;28;20053;-73
2024/02/16 04:20:27;;;;;;;37.58;26.80;;;9.20;99.90;;;;;;2059683;28;20038;-74
2024/02/16 04:21:28;;;;;;;39.75;26.80;;;9.20;99.90;;;;;;2061142;28;20681;-74
2024/02/16 04:22:28;;;;;;;39.97;26.67;;;9.20;99.90;;;;;;2061084;28;20030;-73
2024/02/16 04:23:29;;;;;;;38.58;26.75;;;9.20;99.90;;;;;;2060222;28;20124;-73
2024/02/16 04:24:29;;;;;;;36.53;26.33;;;9.20;99.90;;;;;;2060369;28;20094;-73
2024/02/16 04:25:30;;;;;;;38.50;26.13;;;9.20;99.90;;;;;;2057656;28;20034;-73
2024/02/16 04:26:30;;;;;;;37.88;27.05;;;9.20;99.90;;;;;;2056010;28;20579;-73
2024/02/16 04:27:31;;;;;;;39.33;26.83;;;9.10;99.90;;;;;;2057807;28;20027;-72
2024/02/16 04:28:32;;;;;;;39.78;27.70;;;9.10;99.90;;;;;;2060199;28;20037;-71
2024/02/16 04:29:32;;;;;;;38.45;27.02;;;9.10;99.90;;;;;;2061015;28;20029;-74
2024/02/16 04:30:33;;;;;;;39.38;27.10;;;9.10;99.90;;;;;;2060609;28;20061;-72
2024/02/16 04:31:33;;;;;;;37.70;27.08;;;9.10;99.90;;;;;;2050821;28;20023;-72
2024/02/16 04:32:34;;;;;;;38.75;26.90;;;9.00;99.90;;;;;;2060553;28;20014;-73
2024/02/16 04:33:35;;;;;;;39.67;26.98;;;9.00;99.90;;;;;;2056181;28;20031;-73
2024/02/16 04:34:35;;;;;;;40.03;27.27;;;9.10;99.90;;;;;;2060361;28;20030;-73
2024/02/16 04:35:36;;;;;;;40.58;28.20;;;9.10;99.90;;;;;;2060917;28;20027;-74
2024/02/16 04:36:36;;;;;;;39.15;27.08;;;9.00;99.90;;;;;;2055847;28;20915;-72
2024/02/16 04:37:39;;;;;;;40.70;28.15;;;9.00;99.90;;;;;;2056551;28;20089;-73
2024/02/16 04:38:39;;;;;;;39.72;27.30;;;9.00;99.90;;;;;;2052692;28;20458;-73
2024/02/16 04:39:40;;;;;;;41.22;28.63;;;9.00;99.90;;;;;;2057350;28;20030;-73
2024/02/16 04:40:40;;;;;;;39.47;27.40;;;9.00;99.90;;;;;;2060450;28;20034;-73
2024/02/16 04:41:41;;;;;;;41.88;28.00;;;9.00;99.90;;;;;;2060271;28;20049;-73
2024/02/16 04:42:41;;;;;;;41.78;28.63;;;9.00;99.90;;;;;;2056282;28;20396;-74
2024/02/16 04:43:42;;;;;;;41.83;28.13;;;8.90;99.90;;;;;;2055629;28;20121;-74
2024/02/16 04:44:43;;;;;;;41.72;28.50;;;8.90;99.90;;;;;;2060865;28;20030;-73
2024/02/16 04:45:43;;;;;;;41.08;28.30;;;8.90;99.90;;;;;;2059626;28;20732;-73
2024/02/16 04:46:44;;;;;;;40.47;28.42;;;8.90;99.90;;;;;;2056921;28;20027;-73
2024/02/16 04:47:44;;;;;;;39.47;28.98;;;8.90;99.90;;;;;;2060825;28;20089;-73
2024/02/16 04:48:45;;;;;;;43.53;29.02;;;8.80;99.90;;;;;;2060580;28;20018;-73
2024/02/16 04:49:46;;;;;;;40.13;27.80;;;8.80;99.90;;;;;;2057231;28;20492;-73
2024/02/16 04:50:46;;;;;;;42.53;28.88;;;8.80;99.90;;;;;;2056870;28;20492;-73
2024/02/16 04:51:47;;;;;;;41.67;28.73;;;8.80;99.90;;;;;;2060079;28;20030;-73
2024/02/16 04:52:47;;;;;;;42.63;30.05;;;8.80;99.90;;;;;;2059236;28;20026;-73
2024/02/16 04:53:48;;;;;;;40.92;28.45;;;8.80;99.90;;;;;;2060101;28;20046;-73
2024/02/16 04:54:48;;;;;;;42.08;29.25;;;8.80;99.90;;;;;;2060598;28;20034;-72
2024/02/16 04:55:49;;;;;;;40.38;27.98;;;8.80;99.90;;;;;;2060286;28;20073;-72
2024/02/16 04:56:50;;;;;;;40.10;28.45;;;8.80;99.90;;;;;;2059662;28;20824;-71
2024/02/16 04:57:51;;;;;;;40.53;28.08;;;8.80;99.90;;;;;;2058877;28;20030;-72
2024/02/16 04:58:51;;;;;;;42.35;28.95;;;8.70;99.90;;;;;;2059553;28;20435;-72
2024/02/16 04:59:52;;;;;;;41.83;29.05;;;8.70;99.90;;;;;;2059842;28;20026;-72
2024/02/16 05:00:52;;;;;;;41.28;28.63;;;8.70;99.90;;;;;;2059789;28;20076;-73
2024/02/16 05:01:53;;;;;;;42.83;28.35;;;8.70;99.90;;;;;;2060544;28;20046;-73
2024/02/16 05:02:53;;;;;;;40.40;28.05;;;8.70;99.90;;;;;;2059349;28;20161;-73
2024/02/16 05:03:54;;;;;;;41.20;28.58;;;8.70;99.90;;;;;;2060392;28;20038;-72
2024/02/16 05:04:54;;;;;;;39.67;28.13;;;8.70;99.90;;;;;;2059581;28;20542;-71
2024/02/16 05:05:55;;;;;;;40.50;28.63;;;8.70;99.90;;;;;;2059674;28;20034;-71
2024/02/16 05:06:57;;;;;;;40.05;28.75;;;8.70;99.90;;;;;;2060361;28;20037;-72
2024/02/16 05:07:57;;;;;;;40.80;28.30;;;8.70;99.90;;;;;;2058686;28;20030;-72
2024/02/16 05:08:58;;;;;;;40.42;28.38;;;8.80;99.90;;;;;;2060765;28;20026;-72
2024/02/16 05:09:59;;;;;;;42.05;28.98;;;8.70;99.90;;;;;;2055083;28;20031;-72
2024/02/16 05:11:02;;;;;;;40.33;28.92;;;8.70;99.90;;;;;;2058409;28;20399;-72
2024/02/16 05:12:03;;;;;;;40.45;29.35;;;8.70;99.90;;;;;;2056284;28;20191;-72